sensor_id;sensor_type;location;lat;lon;timestamp;pressure;altitude;pressure_sealevel;temperature;humidity
5380;BME280;2713;42.680;23.310;2023-05-24T00:02:14;94884.72;;;17.49;67.83
5380;BME280;2713;42.680;23.310;2023-05-24T00:04:43;94879.22;;;17.39;68.35
5380;BME280;2713;42.680;23.310;2023-05-24T00:07:10;94881.38;;;17.31;68.34
5380;BME280;2713;42.680;23.310;2023-05-24T00:09:38;94889.28;;;17.42;68.31
5380;BME280;2713;42.680;23.310;2023-05-24T00:12:05;94875.34;;;17.42;67.97
5380;BME280;2713;42.680;23.310;2023-05-24T00:14:32;94885.97;;;17.47;68.15
5380;BME280;2713;42.680;23.310;2023-05-24T00:16:58;94883.19;;;17.30;68.09
5380;BME280;2713;42.680;23.310;2023-05-24T00:19:25;94880.91;;;17.34;67.98
5380;BME280;2713;42.680;23.310;2023-05-24T00:21:53;94880.91;;;17.34;67.79
5380;BME280;2713;42.680;23.310;2023-05-24T00:24:20;94881.56;;;17.17;68.73
5380;BME280;2713;42.680;23.310;2023-05-24T00:26:47;94880.50;;;17.07;69.09
5380;BME280;2713;42.680;23.310;2023-05-24T00:29:14;94871.00;;;17.06;68.79
5380;BME280;2713;42.680;23.310;2023-05-24T00:31:41;94877.22;;;17.11;68.53
5380;BME280;2713;42.680;23.310;2023-05-24T00:34:08;94877.03;;;16.95;69.13
5380;BME280;2713;42.680;23.310;2023-05-24T00:36:36;94872.84;;;17.05;68.77
5380;BME280;2713;42.680;23.310;2023-05-24T00:39:05;94866.53;;;16.95;68.91
5380;BME280;2713;42.680;23.310;2023-05-24T00:41:31;94869.47;;;16.87;69.36
5380;BME280;2713;42.680;23.310;2023-05-24T00:43:58;94877.75;;;17.02;69.06
5380;BME280;2713;42.680;23.310;2023-05-24T00:46:28;94867.50;;;17.12;68.93
5380;BME280;2713;42.680;23.310;2023-05-24T00:48:55;94870.91;;;17.12;69.03
5380;BME280;2713;42.680;23.310;2023-05-24T00:51:23;94866.81;;;17.05;69.54
5380;BME280;2713;42.680;23.310;2023-05-24T00:53:51;94875.69;;;17.04;69.33
5380;BME280;2713;42.680;23.310;2023-05-24T00:56:20;94846.22;;;16.72;69.76
5380;BME280;2713;42.680;23.310;2023-05-24T00:58:47;94855.69;;;16.91;69.30
5380;BME280;2713;42.680;23.310;2023-05-24T01:01:15;94872.81;;;16.94;69.48
5380;BME280;2713;42.680;23.310;2023-05-24T01:03:43;94871.00;;;16.94;69.55
5380;BME280;2713;42.680;23.310;2023-05-24T01:06:12;94877.88;;;16.77;69.95
5380;BME280;2713;42.680;23.310;2023-05-24T01:09:01;94861.06;;;16.66;69.65
5380;BME280;2713;42.680;23.310;2023-05-24T01:11:52;94877.72;;;16.72;69.81
5380;BME280;2713;42.680;23.310;2023-05-24T01:14:27;94876.00;;;16.66;69.85
5380;BME280;2713;42.680;23.310;2023-05-24T01:17:01;94881.53;;;16.76;69.68
5380;BME280;2713;42.680;23.310;2023-05-24T01:19:53;94890.19;;;16.77;69.73
5380;BME280;2713;42.680;23.310;2023-05-24T01:22:30;94884.66;;;16.66;70.11
5380;BME280;2713;42.680;23.310;2023-05-24T01:25:03;94891.25;;;16.57;69.52
5380;BME280;2713;42.680;23.310;2023-05-24T01:27:33;94889.81;;;16.55;69.25
5380;BME280;2713;42.680;23.310;2023-05-24T01:30:03;94896.59;;;16.44;70.08
5380;BME280;2713;42.680;23.310;2023-05-24T01:32:30;94895.50;;;16.52;70.17
5380;BME280;2713;42.680;23.310;2023-05-24T01:34:58;94895.31;;;16.53;69.74
5380;BME280;2713;42.680;23.310;2023-05-24T01:37:25;94892.53;;;16.48;70.53
5380;BME280;2713;42.680;23.310;2023-05-24T01:39:52;94900.13;;;16.56;69.97
5380;BME280;2713;42.680;23.310;2023-05-24T01:42:25;94895.88;;;16.37;70.93
5380;BME280;2713;42.680;23.310;2023-05-24T01:45:01;94892.41;;;16.43;70.29
5380;BME280;2713;42.680;23.310;2023-05-24T01:47:39;94887.19;;;16.55;69.84
5380;BME280;2713;42.680;23.310;2023-05-24T01:50:14;94892.19;;;16.63;69.96
5380;BME280;2713;42.680;23.310;2023-05-24T01:52:43;94884.06;;;16.64;69.53
5380;BME280;2713;42.680;23.310;2023-05-24T01:55:12;94889.00;;;16.54;69.60
5380;BME280;2713;42.680;23.310;2023-05-24T01:57:42;94886.53;;;16.41;70.02
5380;BME280;2713;42.680;23.310;2023-05-24T02:00:13;94881.81;;;16.13;70.88
5380;BME280;2713;42.680;23.310;2023-05-24T02:02:41;94882.19;;;16.35;70.31
5380;BME280;2713;42.680;23.310;2023-05-24T02:05:08;94881.25;;;16.30;70.18
5380;BME280;2713;42.680;23.310;2023-05-24T02:07:35;94884.22;;;16.15;70.61
5380;BME280;2713;42.680;23.310;2023-05-24T02:10:03;94882.59;;;16.14;70.63
5380;BME280;2713;42.680;23.310;2023-05-24T02:12:30;94882.78;;;16.19;70.94
5380;BME280;2713;42.680;23.310;2023-05-24T02:14:57;94878.31;;;16.19;70.94
5380;BME280;2713;42.680;23.310;2023-05-24T02:17:25;94877.09;;;16.22;70.87
5380;BME280;2713;42.680;23.310;2023-05-24T02:19:52;94872.56;;;16.11;70.61
5380;BME280;2713;42.680;23.310;2023-05-24T02:22:19;94865.78;;;16.21;70.32
5380;BME280;2713;42.680;23.310;2023-05-24T02:24:46;94867.41;;;16.22;70.49
5380;BME280;2713;42.680;23.310;2023-05-24T02:27:13;94855.59;;;16.32;70.27
5380;BME280;2713;42.680;23.310;2023-05-24T02:29:40;94864.25;;;16.32;70.39
5380;BME280;2713;42.680;23.310;2023-05-24T02:32:07;94853.03;;;16.25;69.52
5380;BME280;2713;42.680;23.310;2023-05-24T02:34:35;94872.13;;;16.32;69.53
5380;BME280;2713;42.680;23.310;2023-05-24T02:37:10;94873.88;;;16.38;69.66
5380;BME280;2713;42.680;23.310;2023-05-24T02:39:41;94869.72;;;16.31;69.81
5380;BME280;2713;42.680;23.310;2023-05-24T02:42:08;94874.16;;;16.30;69.86
5380;BME280;2713;42.680;23.310;2023-05-24T02:44:36;94871.75;;;16.29;70.01
5380;BME280;2713;42.680;23.310;2023-05-24T02:47:03;94873.84;;;16.20;70.08
5380;BME280;2713;42.680;23.310;2023-05-24T02:49:30;94869.41;;;16.20;70.05
5380;BME280;2713;42.680;23.310;2023-05-24T02:52:01;94869.72;;;16.12;70.39
5380;BME280;2713;42.680;23.310;2023-05-24T02:54:28;94876.41;;;16.08;70.26
5380;BME280;2713;42.680;23.310;2023-05-24T02:56:56;94876.69;;;16.00;70.55
5380;BME280;2713;42.680;23.310;2023-05-24T02:59:23;94871.78;;;15.86;70.28
5380;BME280;2713;42.680;23.310;2023-05-24T03:01:50;94879.94;;;15.78;71.21
5380;BME280;2713;42.680;23.310;2023-05-24T03:04:17;94876.72;;;15.76;71.44
5380;BME280;2713;42.680;23.310;2023-05-24T03:06:44;94883.19;;;15.73;71.48
5380;BME280;2713;42.680;23.310;2023-05-24T03:09:14;94882.50;;;15.59;71.90
5380;BME280;2713;42.680;23.310;2023-05-24T03:11:41;94852.13;;;15.52;71.59
5380;BME280;2713;42.680;23.310;2023-05-24T03:14:08;94887.81;;;15.53;71.99
5380;BME280;2713;42.680;23.310;2023-05-24T03:16:37;94892.81;;;15.79;71.11
5380;BME280;2713;42.680;23.310;2023-05-24T03:19:04;94889.75;;;15.64;71.27
5380;BME280;2713;42.680;23.310;2023-05-24T03:21:31;94890.00;;;15.81;70.94
5380;BME280;2713;42.680;23.310;2023-05-24T03:23:57;94893.94;;;15.90;71.07
5380;BME280;2713;42.680;23.310;2023-05-24T03:26:26;94898.66;;;15.81;71.56
5380;BME280;2713;42.680;23.310;2023-05-24T03:28:53;94906.28;;;15.83;71.03
5380;BME280;2713;42.680;23.310;2023-05-24T03:31:27;94897.34;;;15.90;71.06
5380;BME280;2713;42.680;23.310;2023-05-24T03:33:54;94906.34;;;16.01;70.90
5380;BME280;2713;42.680;23.310;2023-05-24T03:36:21;94904.97;;;15.98;70.72
5380;BME280;2713;42.680;23.310;2023-05-24T03:38:50;94901.44;;;15.86;71.22
5380;BME280;2713;42.680;23.310;2023-05-24T03:41:18;94898.00;;;15.86;71.38
5380;BME280;2713;42.680;23.310;2023-05-24T03:43:46;94915.88;;;15.70;72.32
5380;BME280;2713;42.680;23.310;2023-05-24T03:46:15;94904.03;;;15.68;72.41
5380;BME280;2713;42.680;23.310;2023-05-24T03:48:42;94908.06;;;15.89;71.54
5380;BME280;2713;42.680;23.310;2023-05-24T03:51:09;94905.53;;;15.76;72.52
5380;BME280;2713;42.680;23.310;2023-05-24T03:53:36;94896.25;;;15.80;71.71
5380;BME280;2713;42.680;23.310;2023-05-24T03:56:03;94898.44;;;15.83;71.39
5380;BME280;2713;42.680;23.310;2023-05-24T03:58:30;94905.75;;;15.99;70.35
5380;BME280;2713;42.680;23.310;2023-05-24T04:00:58;94904.25;;;16.09;70.17
5380;BME280;2713;42.680;23.310;2023-05-24T04:03:25;94911.00;;;15.99;70.62
5380;BME280;2713;42.680;23.310;2023-05-24T04:05:53;94911.66;;;15.94;71.05
5380;BME280;2713;42.680;23.310;2023-05-24T04:08:20;94912.66;;;15.93;70.76
5380;BME280;2713;42.680;23.310;2023-05-24T04:10:47;94907.94;;;16.02;70.49
5380;BME280;2713;42.680;23.310;2023-05-24T04:13:14;94914.69;;;16.16;69.58
5380;BME280;2713;42.680;23.310;2023-05-24T04:15:40;94910.75;;;16.25;69.01
5380;BME280;2713;42.680;23.310;2023-05-24T04:18:10;94914.97;;;16.26;69.91
5380;BME280;2713;42.680;23.310;2023-05-24T04:20:43;94923.41;;;16.28;69.89
5380;BME280;2713;42.680;23.310;2023-05-24T04:23:10;94922.09;;;16.37;69.18
5380;BME280;2713;42.680;23.310;2023-05-24T04:25:37;94917.16;;;16.47;69.21
5380;BME280;2713;42.680;23.310;2023-05-24T04:28:07;94913.88;;;16.52;69.03
5380;BME280;2713;42.680;23.310;2023-05-24T04:30:34;94920.56;;;16.48;69.09
5380;BME280;2713;42.680;23.310;2023-05-24T04:33:01;94911.66;;;16.55;68.80
5380;BME280;2713;42.680;23.310;2023-05-24T04:35:30;94925.78;;;16.72;68.31
5380;BME280;2713;42.680;23.310;2023-05-24T04:37:58;94922.13;;;16.92;67.51
5380;BME280;2713;42.680;23.310;2023-05-24T04:40:25;94926.00;;;17.19;66.69
5380;BME280;2713;42.680;23.310;2023-05-24T04:42:51;94921.53;;;17.49;65.49
5380;BME280;2713;42.680;23.310;2023-05-24T04:45:18;94941.16;;;17.88;64.73
5380;BME280;2713;42.680;23.310;2023-05-24T04:47:47;94937.75;;;18.34;63.51
5380;BME280;2713;42.680;23.310;2023-05-24T04:50:18;94940.34;;;18.81;61.91
5380;BME280;2713;42.680;23.310;2023-05-24T04:52:47;94943.94;;;18.51;61.95
5380;BME280;2713;42.680;23.310;2023-05-24T04:55:13;94935.81;;;18.41;62.18
5380;BME280;2713;42.680;23.310;2023-05-24T04:57:40;94946.31;;;18.64;61.54
5380;BME280;2713;42.680;23.310;2023-05-24T05:00:08;94942.78;;;19.10;60.40
5380;BME280;2713;42.680;23.310;2023-05-24T05:02:35;94951.38;;;19.06;60.42
5380;BME280;2713;42.680;23.310;2023-05-24T05:05:01;94946.09;;;19.17;59.82
5380;BME280;2713;42.680;23.310;2023-05-24T05:07:28;94949.47;;;19.41;59.08
5380;BME280;2713;42.680;23.310;2023-05-24T05:09:57;94951.94;;;19.48;58.72
5380;BME280;2713;42.680;23.310;2023-05-24T05:12:23;94940.31;;;19.94;57.44
5380;BME280;2713;42.680;23.310;2023-05-24T05:14:50;94944.97;;;20.20;57.07
5380;BME280;2713;42.680;23.310;2023-05-24T05:17:17;94945.81;;;20.25;55.92
5380;BME280;2713;42.680;23.310;2023-05-24T05:19:44;94947.53;;;20.32;56.37
5380;BME280;2713;42.680;23.310;2023-05-24T05:22:11;94957.66;;;20.56;55.71
5380;BME280;2713;42.680;23.310;2023-05-24T05:24:37;94958.81;;;20.65;55.41
5380;BME280;2713;42.680;23.310;2023-05-24T05:27:06;94949.31;;;20.86;54.67
5380;BME280;2713;42.680;23.310;2023-05-24T05:29:32;94953.88;;;20.91;54.14
5380;BME280;2713;42.680;23.310;2023-05-24T05:31:59;94953.34;;;20.89;53.82
5380;BME280;2713;42.680;23.310;2023-05-24T05:34:26;94950.78;;;21.15;53.11
5380;BME280;2713;42.680;23.310;2023-05-24T05:36:53;94949.22;;;21.19;53.28
5380;BME280;2713;42.680;23.310;2023-05-24T05:39:19;94952.63;;;21.42;51.96
5380;BME280;2713;42.680;23.310;2023-05-24T05:41:46;94952.63;;;21.42;51.78
5380;BME280;2713;42.680;23.310;2023-05-24T05:44:14;94954.13;;;21.33;52.10
5380;BME280;2713;42.680;23.310;2023-05-24T05:46:41;94950.91;;;21.52;51.85
5380;BME280;2713;42.680;23.310;2023-05-24T05:49:10;94948.34;;;21.62;52.14
5380;BME280;2713;42.680;23.310;2023-05-24T05:51:37;94950.53;;;21.70;50.94
5380;BME280;2713;42.680;23.310;2023-05-24T05:54:04;94948.66;;;21.93;50.43
5380;BME280;2713;42.680;23.310;2023-05-24T05:56:33;94927.41;;;21.88;50.11
5380;BME280;2713;42.680;23.310;2023-05-24T05:59:05;94943.66;;;21.69;51.33
5380;BME280;2713;42.680;23.310;2023-05-24T06:01:33;94952.53;;;22.12;50.72
5380;BME280;2713;42.680;23.310;2023-05-24T06:04:00;94959.41;;;22.50;49.75
5380;BME280;2713;42.680;23.310;2023-05-24T06:06:27;94955.75;;;22.61;49.69
5380;BME280;2713;42.680;23.310;2023-05-24T06:08:53;94953.28;;;22.86;48.74
5380;BME280;2713;42.680;23.310;2023-05-24T06:11:20;94961.97;;;22.77;48.79
5380;BME280;2713;42.680;23.310;2023-05-24T06:13:48;94959.59;;;22.80;48.82
5380;BME280;2713;42.680;23.310;2023-05-24T06:16:14;94964.50;;;23.03;48.38
5380;BME280;2713;42.680;23.310;2023-05-24T06:18:44;94964.88;;;23.37;47.93
5380;BME280;2713;42.680;23.310;2023-05-24T06:21:11;94965.97;;;23.41;47.43
5380;BME280;2713;42.680;23.310;2023-05-24T06:23:38;94953.31;;;23.68;47.80
5380;BME280;2713;42.680;23.310;2023-05-24T06:26:15;94959.97;;;23.91;46.65
5380;BME280;2713;42.680;23.310;2023-05-24T06:28:46;94958.13;;;23.97;45.75
5380;BME280;2713;42.680;23.310;2023-05-24T06:31:13;94953.56;;;23.87;45.98
5380;BME280;2713;42.680;23.310;2023-05-24T06:33:39;94948.81;;;24.04;46.36
5380;BME280;2713;42.680;23.310;2023-05-24T06:36:08;94950.69;;;24.09;45.84
5380;BME280;2713;42.680;23.310;2023-05-24T06:38:34;94954.34;;;23.67;46.66
5380;BME280;2713;42.680;23.310;2023-05-24T06:41:01;94952.50;;;23.78;46.39
5380;BME280;2713;42.680;23.310;2023-05-24T06:43:28;94945.41;;;24.24;45.21
5380;BME280;2713;42.680;23.310;2023-05-24T06:45:55;94943.25;;;24.36;44.81
5380;BME280;2713;42.680;23.310;2023-05-24T06:48:22;94946.38;;;24.73;44.65
5380;BME280;2713;42.680;23.310;2023-05-24T06:50:49;94943.69;;;24.94;44.10
5380;BME280;2713;42.680;23.310;2023-05-24T06:53:17;94946.34;;;24.94;43.88
5380;BME280;2713;42.680;23.310;2023-05-24T06:55:44;94941.91;;;24.49;43.82
5380;BME280;2713;42.680;23.310;2023-05-24T06:58:10;94940.53;;;24.66;43.14
5380;BME280;2713;42.680;23.310;2023-05-24T07:00:39;94941.66;;;24.30;43.83
5380;BME280;2713;42.680;23.310;2023-05-24T07:03:07;94933.91;;;24.64;43.47
5380;BME280;2713;42.680;23.310;2023-05-24T07:05:34;94932.88;;;24.40;44.20
5380;BME280;2713;42.680;23.310;2023-05-24T07:08:01;94938.47;;;24.48;44.03
5380;BME280;2713;42.680;23.310;2023-05-24T07:10:29;94938.13;;;24.85;43.55
5380;BME280;2713;42.680;23.310;2023-05-24T07:12:56;94935.16;;;25.02;42.53
5380;BME280;2713;42.680;23.310;2023-05-24T07:15:23;94930.78;;;25.21;42.31
5380;BME280;2713;42.680;23.310;2023-05-24T07:17:50;94932.75;;;25.59;41.70
5380;BME280;2713;42.680;23.310;2023-05-24T07:20:17;94932.69;;;25.69;41.48
5380;BME280;2713;42.680;23.310;2023-05-24T07:22:43;94940.41;;;25.71;41.50
5380;BME280;2713;42.680;23.310;2023-05-24T07:25:10;94932.19;;;25.67;41.12
5380;BME280;2713;42.680;23.310;2023-05-24T07:27:38;94940.69;;;25.69;41.14
5380;BME280;2713;42.680;23.310;2023-05-24T07:30:06;94932.59;;;25.41;41.39
5380;BME280;2713;42.680;23.310;2023-05-24T07:32:33;94943.03;;;25.27;42.12
5380;BME280;2713;42.680;23.310;2023-05-24T07:35:00;94934.84;;;25.13;42.41
5380;BME280;2713;42.680;23.310;2023-05-24T07:37:29;94939.88;;;25.20;41.94
5380;BME280;2713;42.680;23.310;2023-05-24T07:39:56;94946.03;;;25.64;41.16
5380;BME280;2713;42.680;23.310;2023-05-24T07:42:22;94937.75;;;26.05;40.42
5380;BME280;2713;42.680;23.310;2023-05-24T07:44:51;94954.59;;;26.34;39.12
5380;BME280;2713;42.680;23.310;2023-05-24T07:47:18;94943.25;;;25.85;39.95
5380;BME280;2713;42.680;23.310;2023-05-24T07:49:45;94939.53;;;25.81;40.08
5380;BME280;2713;42.680;23.310;2023-05-24T07:52:11;94911.38;;;25.69;40.05
5380;BME280;2713;42.680;23.310;2023-05-24T07:54:38;94934.78;;;25.78;39.75
5380;BME280;2713;42.680;23.310;2023-05-24T07:57:05;94934.69;;;25.88;40.37
5380;BME280;2713;42.680;23.310;2023-05-24T07:59:33;94928.88;;;26.14;40.21
5380;BME280;2713;42.680;23.310;2023-05-24T08:02:02;94929.56;;;26.59;39.67
5380;BME280;2713;42.680;23.310;2023-05-24T08:04:30;94927.47;;;27.08;38.65
5380;BME280;2713;42.680;23.310;2023-05-24T08:06:57;94926.31;;;27.14;37.93
5380;BME280;2713;42.680;23.310;2023-05-24T08:09:26;94922.56;;;27.15;37.60
5380;BME280;2713;42.680;23.310;2023-05-24T08:11:54;94921.91;;;27.05;36.98
5380;BME280;2713;42.680;23.310;2023-05-24T08:14:21;94924.13;;;26.69;37.79
5380;BME280;2713;42.680;23.310;2023-05-24T08:16:48;94924.81;;;26.80;37.64
5380;BME280;2713;42.680;23.310;2023-05-24T08:19:16;94926.94;;;27.06;36.91
5380;BME280;2713;42.680;23.310;2023-05-24T08:21:43;94914.31;;;27.54;33.83
5380;BME280;2713;42.680;23.310;2023-05-24T08:24:11;94922.03;;;28.12;33.63
5380;BME280;2713;42.680;23.310;2023-05-24T08:26:39;94916.41;;;27.39;34.28
5380;BME280;2713;42.680;23.310;2023-05-24T08:29:06;94920.22;;;27.33;33.93
5380;BME280;2713;42.680;23.310;2023-05-24T08:31:33;94913.56;;;27.30;32.88
5380;BME280;2713;42.680;23.310;2023-05-24T08:34:01;94921.50;;;26.93;33.67
5380;BME280;2713;42.680;23.310;2023-05-24T08:36:29;94922.72;;;27.24;33.53
5380;BME280;2713;42.680;23.310;2023-05-24T08:38:57;94926.91;;;27.30;33.43
5380;BME280;2713;42.680;23.310;2023-05-24T08:41:25;94915.28;;;27.63;33.12
5380;BME280;2713;42.680;23.310;2023-05-24T08:43:53;94911.72;;;27.87;32.98
5380;BME280;2713;42.680;23.310;2023-05-24T08:46:22;94911.59;;;27.59;32.47
5380;BME280;2713;42.680;23.310;2023-05-24T08:48:51;94918.22;;;27.19;31.08
5380;BME280;2713;42.680;23.310;2023-05-24T08:51:19;94920.44;;;27.12;30.94
5380;BME280;2713;42.680;23.310;2023-05-24T08:53:49;94924.00;;;27.50;31.53
5380;BME280;2713;42.680;23.310;2023-05-24T08:56:17;94918.97;;;27.44;31.81
5380;BME280;2713;42.680;23.310;2023-05-24T08:58:45;94914.03;;;27.75;31.40
5380;BME280;2713;42.680;23.310;2023-05-24T09:01:12;94910.22;;;27.81;31.19
5380;BME280;2713;42.680;23.310;2023-05-24T09:03:40;94903.97;;;28.04;31.00
5380;BME280;2713;42.680;23.310;2023-05-24T09:06:09;94896.63;;;28.14;30.75
5380;BME280;2713;42.680;23.310;2023-05-24T09:08:39;94901.94;;;27.63;31.03
5380;BME280;2713;42.680;23.310;2023-05-24T09:11:08;94911.09;;;27.34;31.74
5380;BME280;2713;42.680;23.310;2023-05-24T09:13:35;94913.25;;;27.13;32.22
5380;BME280;2713;42.680;23.310;2023-05-24T09:16:04;94907.84;;;27.18;31.62
5380;BME280;2713;42.680;23.310;2023-05-24T10:06:17;94891.31;;;27.16;30.05
5380;BME280;2713;42.680;23.310;2023-05-24T10:08:46;94883.34;;;27.35;29.38
5380;BME280;2713;42.680;23.310;2023-05-24T10:11:17;94884.28;;;27.44;28.75
5380;BME280;2713;42.680;23.310;2023-05-24T10:13:44;94882.91;;;27.28;28.49
5380;BME280;2713;42.680;23.310;2023-05-24T10:16:12;94869.84;;;27.26;28.76
5380;BME280;2713;42.680;23.310;2023-05-24T10:18:39;94877.88;;;26.84;29.03
5380;BME280;2713;42.680;23.310;2023-05-24T10:21:06;94886.00;;;26.92;30.74
5380;BME280;2713;42.680;23.310;2023-05-24T10:23:37;94886.19;;;27.01;29.10
5380;BME280;2713;42.680;23.310;2023-05-24T10:26:06;94875.75;;;27.04;29.00
5380;BME280;2713;42.680;23.310;2023-05-24T10:28:37;94855.25;;;27.00;28.92
5380;BME280;2713;42.680;23.310;2023-05-24T10:31:09;94860.81;;;26.56;30.73
5380;BME280;2713;42.680;23.310;2023-05-24T10:33:37;94870.75;;;26.74;30.75
5380;BME280;2713;42.680;23.310;2023-05-24T10:36:07;94869.34;;;26.82;30.00
5380;BME280;2713;42.680;23.310;2023-05-24T10:38:39;94872.28;;;27.04;30.13
5380;BME280;2713;42.680;23.310;2023-05-24T10:41:10;94861.41;;;27.19;30.17
5380;BME280;2713;42.680;23.310;2023-05-24T10:43:39;94851.72;;;27.23;30.02
5380;BME280;2713;42.680;23.310;2023-05-24T10:46:07;94854.31;;;27.09;30.33
5380;BME280;2713;42.680;23.310;2023-05-24T10:48:36;94849.56;;;27.25;29.95
5380;BME280;2713;42.680;23.310;2023-05-24T10:51:29;94848.34;;;27.17;30.67
5380;BME280;2713;42.680;23.310;2023-05-24T10:54:09;94834.91;;;27.04;29.68
5380;BME280;2713;42.680;23.310;2023-05-24T10:56:39;94842.03;;;26.90;29.91
5380;BME280;2713;42.680;23.310;2023-05-24T10:59:06;94839.38;;;26.90;30.08
5380;BME280;2713;42.680;23.310;2023-05-24T11:01:33;94834.13;;;26.85;30.22
5380;BME280;2713;42.680;23.310;2023-05-24T11:04:07;94837.41;;;26.71;30.86
5380;BME280;2713;42.680;23.310;2023-05-24T11:06:47;94826.78;;;26.95;31.08
5380;BME280;2713;42.680;23.310;2023-05-24T11:09:16;94830.81;;;27.11;30.72
5380;BME280;2713;42.680;23.310;2023-05-24T11:11:46;94836.22;;;27.06;30.82
5380;BME280;2713;42.680;23.310;2023-05-24T11:14:16;94827.56;;;26.48;30.49
5380;BME280;2713;42.680;23.310;2023-05-24T11:16:45;94818.16;;;26.32;31.63
5380;BME280;2713;42.680;23.310;2023-05-24T11:19:16;94821.16;;;26.49;30.60
5380;BME280;2713;42.680;23.310;2023-05-24T11:21:43;94835.53;;;26.53;30.52
5380;BME280;2713;42.680;23.310;2023-05-24T11:24:11;94831.09;;;26.67;31.27
5380;BME280;2713;42.680;23.310;2023-05-24T11:26:39;94832.44;;;26.41;30.72
5380;BME280;2713;42.680;23.310;2023-05-24T11:29:06;94820.97;;;26.41;31.24
5380;BME280;2713;42.680;23.310;2023-05-24T11:31:34;94832.97;;;26.43;31.54
5380;BME280;2713;42.680;23.310;2023-05-24T11:34:04;94820.38;;;26.25;30.93
5380;BME280;2713;42.680;23.310;2023-05-24T11:36:32;94826.00;;;26.47;30.56
5380;BME280;2713;42.680;23.310;2023-05-24T11:39:01;94828.38;;;26.49;30.03
5380;BME280;2713;42.680;23.310;2023-05-24T11:41:34;94817.25;;;26.18;30.30
5380;BME280;2713;42.680;23.310;2023-05-24T11:44:04;94818.44;;;26.02;31.65
5380;BME280;2713;42.680;23.310;2023-05-24T11:46:31;94820.31;;;26.30;31.71
5380;BME280;2713;42.680;23.310;2023-05-24T11:48:59;94815.34;;;26.47;30.44
5380;BME280;2713;42.680;23.310;2023-05-24T11:51:27;94811.19;;;26.07;30.65
5380;BME280;2713;42.680;23.310;2023-05-24T11:53:55;94808.44;;;26.17;30.19
5380;BME280;2713;42.680;23.310;2023-05-24T11:56:22;94798.44;;;26.33;30.65
5380;BME280;2713;42.680;23.310;2023-05-24T11:58:51;94799.84;;;26.49;30.03
5380;BME280;2713;42.680;23.310;2023-05-24T12:01:26;94798.88;;;26.64;30.30
5380;BME280;2713;42.680;23.310;2023-05-24T12:03:53;94797.19;;;26.68;30.12
5380;BME280;2713;42.680;23.310;2023-05-24T12:06:20;94797.50;;;26.19;30.04
5380;BME280;2713;42.680;23.310;2023-05-24T12:08:47;94802.56;;;25.92;30.99
5380;BME280;2713;42.680;23.310;2023-05-24T12:11:15;94792.50;;;26.12;30.33
5380;BME280;2713;42.680;23.310;2023-05-24T12:13:42;94803.03;;;25.99;31.06
5380;BME280;2713;42.680;23.310;2023-05-24T12:16:10;94799.56;;;25.98;29.04
5380;BME280;2713;42.680;23.310;2023-05-24T12:18:40;94789.44;;;26.24;28.82
5380;BME280;2713;42.680;23.310;2023-05-24T12:21:08;94788.13;;;26.27;29.38
5380;BME280;2713;42.680;23.310;2023-05-24T12:23:35;94788.59;;;26.29;29.63
5380;BME280;2713;42.680;23.310;2023-05-24T12:26:04;94784.69;;;26.45;29.73
5380;BME280;2713;42.680;23.310;2023-05-24T12:28:34;94787.53;;;26.53;30.19
5380;BME280;2713;42.680;23.310;2023-05-24T12:31:01;94773.75;;;26.65;30.18
5380;BME280;2713;42.680;23.310;2023-05-24T12:33:29;94771.44;;;26.82;30.19
5380;BME280;2713;42.680;23.310;2023-05-24T12:35:58;94772.97;;;26.88;30.56
5380;BME280;2713;42.680;23.310;2023-05-24T12:38:25;94769.59;;;26.59;30.92
5380;BME280;2713;42.680;23.310;2023-05-24T12:40:52;94767.44;;;26.61;30.95
5380;BME280;2713;42.680;23.310;2023-05-24T12:43:20;94756.69;;;26.47;31.55
5380;BME280;2713;42.680;23.310;2023-05-24T12:45:47;94752.16;;;26.24;32.00
5380;BME280;2713;42.680;23.310;2023-05-24T12:48:13;94761.31;;;26.13;32.20
5380;BME280;2713;42.680;23.310;2023-05-24T12:50:41;94756.91;;;26.27;32.26
5380;BME280;2713;42.680;23.310;2023-05-24T12:53:09;94760.59;;;26.31;31.55
5380;BME280;2713;42.680;23.310;2023-05-24T12:55:36;94754.66;;;26.10;32.36
5380;BME280;2713;42.680;23.310;2023-05-24T12:58:02;94747.81;;;26.04;31.57
5380;BME280;2713;42.680;23.310;2023-05-24T13:00:32;94758.72;;;26.32;30.97
5380;BME280;2713;42.680;23.310;2023-05-24T13:02:59;94752.47;;;26.41;31.08
5380;BME280;2713;42.680;23.310;2023-05-24T13:05:27;94750.19;;;26.53;30.97
5380;BME280;2713;42.680;23.310;2023-05-24T13:07:54;94753.66;;;26.72;31.25
5380;BME280;2713;42.680;23.310;2023-05-24T13:10:23;94734.25;;;26.91;30.63
5380;BME280;2713;42.680;23.310;2023-05-24T13:12:50;94738.84;;;26.85;30.45
5380;BME280;2713;42.680;23.310;2023-05-24T13:15:17;94738.84;;;27.04;30.60
5380;BME280;2713;42.680;23.310;2023-05-24T13:17:47;94729.47;;;27.06;30.24
5380;BME280;2713;42.680;23.310;2023-05-24T13:20:14;94731.78;;;27.13;30.20
5380;BME280;2713;42.680;23.310;2023-05-24T13:22:43;94730.22;;;27.12;31.06
5380;BME280;2713;42.680;23.310;2023-05-24T13:25:10;94732.13;;;27.06;31.90
5380;BME280;2713;42.680;23.310;2023-05-24T13:27:38;94732.13;;;26.69;32.01
5380;BME280;2713;42.680;23.310;2023-05-24T13:30:06;94740.97;;;26.22;32.61
5380;BME280;2713;42.680;23.310;2023-05-24T13:32:34;94732.69;;;26.23;32.63
5380;BME280;2713;42.680;23.310;2023-05-24T13:35:04;94734.00;;;26.26;32.22
5380;BME280;2713;42.680;23.310;2023-05-24T13:37:32;94730.78;;;26.29;32.10
5380;BME280;2713;42.680;23.310;2023-05-24T13:39:59;94730.63;;;26.15;31.58
5380;BME280;2713;42.680;23.310;2023-05-24T13:42:36;94729.53;;;25.93;32.18
5380;BME280;2713;42.680;23.310;2023-05-24T13:45:07;94736.91;;;25.77;32.90
5380;BME280;2713;42.680;23.310;2023-05-24T13:47:35;94739.94;;;25.65;33.33
5380;BME280;2713;42.680;23.310;2023-05-24T13:50:06;94749.59;;;25.61;33.46
5380;BME280;2713;42.680;23.310;2023-05-24T13:52:33;94755.41;;;25.63;34.18
5380;BME280;2713;42.680;23.310;2023-05-24T13:55:02;94754.50;;;25.44;34.93
5380;BME280;2713;42.680;23.310;2023-05-24T13:57:30;94738.63;;;25.34;35.49
5380;BME280;2713;42.680;23.310;2023-05-24T13:59:57;94761.72;;;25.39;35.62
5380;BME280;2713;42.680;23.310;2023-05-24T14:02:26;94768.50;;;25.21;36.32
5380;BME280;2713;42.680;23.310;2023-05-24T14:04:54;94768.53;;;25.16;36.39